Terminal Aerodrome Forecast
Issued by NWS

Current Version | Previous Version | Text Only | Print | Product List | Glossary On
Versions: 1 2 3 4 5 6 7 8 9 10 11 12 13 14 15
000
FTUS46 KLOX 290559
TAFPMD
TAF
KPMD 290559Z 2906/3006 25012KT P6SM SCT250
     FM290800 22008KT P6SM SCT250
     FM291900 28018G25KT P6SM SCT250
     FM292200 27022G32KT P6SM SCT250
     FM300300 27014G20KT P6SM SCT250=

USA.gov is the U.S. government's official web portal to all federal, state and local government web resources and services.